Time;durP1;ratioP1;P1;durP2;ratioP2;P2;SDS_P1;SDS_P2;PMS_P1;PMS_P2;Temp;Humidity;BMP_temperature;BMP_pressure;BME280_temperature;BME280_humidity;BME280_pressure;Samples;Min_cycle;Max_cycle;Signal;HPM_P1;HPM_P2
2020/12/19 00:02:05;;;;;;;78.10;10.43;;;1.30;99.90;;;;;;5054677;28;20558;-58
2020/12/19 00:04:31;;;;;;;27.67;8.40;;;1.30;99.90;;;;;;5053261;28;20973;-61
2020/12/19 00:06:57;;;;;;;41.50;9.00;;;1.20;99.90;;;;;;5055108;28;20470;-61
2020/12/19 00:09:23;;;;;;;168.47;11.93;;;1.20;99.90;;;;;;5055674;28;20429;-62
2020/12/19 00:11:51;;;;;;;103.53;10.03;;;1.30;99.90;;;;;;5039760;28;20567;-61
2020/12/19 00:14:18;;;;;;;88.93;9.43;;;1.20;99.90;;;;;;5054774;28;20178;-61
2020/12/19 00:16:44;;;;;;;131.73;10.47;;;1.20;99.90;;;;;;5095901;22;20559;-60
2020/12/19 00:19:09;;;;;;;29.73;8.17;;;1.20;99.90;;;;;;5072160;28;20451;-60
2020/12/19 00:21:35;;;;;;;20.37;8.47;;;1.20;99.90;;;;;;5052073;28;20184;-60
2020/12/19 00:24:03;;;;;;;65.03;9.00;;;1.20;99.90;;;;;;5070568;28;20176;-60
2020/12/19 00:26:36;;;;;;;40.90;8.07;;;1.20;99.90;;;;;;5067097;28;20463;-61
2020/12/19 00:29:04;;;;;;;56.40;9.37;;;1.20;99.90;;;;;;5051759;28;20521;-60
2020/12/19 00:31:30;;;;;;;42.63;9.30;;;1.20;99.90;;;;;;5033131;28;20956;-60
2020/12/19 00:33:56;;;;;;;194.90;11.90;;;1.20;99.90;;;;;;5052215;28;20486;-60
2020/12/19 00:36:22;;;;;;;40.70;7.00;;;1.20;99.90;;;;;;5051217;28;20270;-59
2020/12/19 00:38:48;;;;;;;78.20;8.60;;;1.10;99.90;;;;;;5030182;28;20432;-60
2020/12/19 00:41:25;;;;;;;35.13;7.57;;;1.10;99.90;;;;;;5047446;28;20230;-60
2020/12/19 00:43:51;;;;;;;80.23;9.43;;;1.10;99.90;;;;;;5051146;28;20472;-60
2020/12/19 00:46:17;;;;;;;54.60;8.03;;;1.10;99.90;;;;;;5033170;28;21028;-60
2020/12/19 00:48:44;;;;;;;45.87;7.20;;;1.10;99.90;;;;;;5031702;28;20432;-62
2020/12/19 00:51:18;;;;;;;59.20;8.00;;;1.10;99.90;;;;;;5052194;28;20431;-60
2020/12/19 00:53:45;;;;;;;39.07;7.60;;;1.10;99.90;;;;;;5050267;28;20426;-61
2020/12/19 00:56:21;;;;;;;58.73;8.30;;;1.10;99.90;;;;;;5047507;28;20965;-63
2020/12/19 00:58:48;;;;;;;59.33;7.87;;;1.00;99.90;;;;;;5033519;28;20847;-61
2020/12/19 01:01:15;;;;;;;38.90;6.50;;;1.00;99.90;;;;;;5035915;28;20858;-61
2020/12/19 01:03:42;;;;;;;80.73;8.60;;;1.00;99.90;;;;;;5031440;28;20719;-60
2020/12/19 01:06:08;;;;;;;14.93;7.17;;;1.00;99.90;;;;;;5025011;28;20459;-62
2020/12/19 01:08:34;;;;;;;55.90;8.07;;;1.00;99.90;;;;;;5050186;28;20427;-61
2020/12/19 01:11:00;;;;;;;13.97;6.50;;;0.90;99.90;;;;;;5049443;28;20433;-62
2020/12/19 01:13:26;;;;;;;38.97;6.80;;;0.90;99.90;;;;;;5048579;28;20243;-60
2020/12/19 01:15:52;;;;;;;73.23;8.43;;;1.00;99.90;;;;;;5032300;28;20459;-61
2020/12/19 01:18:18;;;;;;;150.80;10.50;;;0.90;99.90;;;;;;5051107;28;20238;-60
2020/12/19 01:20:43;;;;;;;24.97;6.67;;;0.90;99.90;;;;;;5049173;28;20184;-60
2020/12/19 01:23:09;;;;;;;38.00;7.30;;;0.90;99.90;;;;;;5030790;28;20439;-60
2020/12/19 01:25:35;;;;;;;12.27;6.50;;;0.90;99.90;;;;;;5051885;28;20463;-62
2020/12/19 01:28:01;;;;;;;29.50;6.73;;;0.90;99.90;;;;;;5051036;28;20173;-61
2020/12/19 01:30:26;;;;;;;73.03;7.60;;;0.80;99.90;;;;;;5026652;28;20651;-60
2020/12/19 01:32:52;;;;;;;29.77;7.00;;;0.80;99.90;;;;;;5030145;28;20223;-62
2020/12/19 01:35:17;;;;;;;55.43;7.87;;;0.80;99.90;;;;;;5051319;28;20654;-62
2020/12/19 01:37:43;;;;;;;55.07;8.40;;;0.80;99.90;;;;;;5048576;28;20189;-62
2020/12/19 01:40:09;;;;;;;26.93;6.63;;;0.70;99.90;;;;;;5047092;28;20233;-60
2020/12/19 01:42:35;;;;;;;23.00;8.10;;;0.70;99.90;;;;;;5050235;28;20924;-60
2020/12/19 01:45:01;;;;;;;15.63;6.40;;;0.70;99.90;;;;;;5050675;28;20182;-62
2020/12/19 01:47:27;;;;;;;34.67;6.57;;;0.70;99.90;;;;;;5018871;28;21007;-62
2020/12/19 01:49:52;;;;;;;64.83;8.00;;;0.80;99.90;;;;;;5048831;28;20192;-62
2020/12/19 01:52:21;;;;;;;75.30;7.97;;;0.80;99.90;;;;;;5047941;28;20181;-60
2020/12/19 01:54:47;;;;;;;26.63;7.00;;;0.80;99.90;;;;;;5050217;28;20176;-60
2020/12/19 01:57:14;;;;;;;36.10;7.13;;;0.80;99.90;;;;;;5062174;28;20512;-61
2020/12/19 01:59:39;;;;;;;70.20;7.23;;;0.80;99.90;;;;;;5051405;28;20877;-60
2020/12/19 02:02:07;;;;;;;41.27;6.67;;;0.80;99.90;;;;;;5045143;28;20518;-62
2020/12/19 02:04:34;;;;;;;54.20;8.00;;;0.80;99.90;;;;;;5049960;28;20172;-60
2020/12/19 02:07:02;;;;;;;45.67;7.63;;;0.80;99.90;;;;;;5051857;28;20506;-61
2020/12/19 02:09:34;;;;;;;42.60;7.77;;;0.80;99.90;;;;;;5048692;28;20411;-61
2020/12/19 02:12:00;;;;;;;35.50;6.63;;;0.80;99.90;;;;;;5037779;28;20435;-61
2020/12/19 02:14:29;;;;;;;45.73;6.90;;;0.80;99.90;;;;;;5047005;28;20438;-60
2020/12/19 02:17:00;;;;;;;13.87;5.43;;;0.70;99.90;;;;;;5042441;28;20693;-62
2020/12/19 02:19:27;;;;;;;19.73;5.60;;;0.80;99.90;;;;;;5040270;28;20427;-61
2020/12/19 02:21:53;;;;;;;41.07;7.20;;;0.70;99.90;;;;;;5049588;28;20422;-61
2020/12/19 02:24:20;;;;;;;58.53;8.40;;;0.70;99.90;;;;;;5049640;28;20432;-61
2020/12/19 02:26:50;;;;;;;15.33;6.27;;;0.70;99.90;;;;;;5045595;28;20512;-61
2020/12/19 02:29:16;;;;;;;8.60;5.77;;;0.70;99.90;;;;;;5046724;28;20442;-60
2020/12/19 02:31:43;;;;;;;18.30;5.90;;;0.70;99.90;;;;;;5048728;28;20415;-60
2020/12/19 02:34:09;;;;;;;8.90;5.27;;;0.70;99.90;;;;;;5032480;28;20432;-60
2020/12/19 02:36:35;;;;;;;17.73;5.33;;;0.70;99.90;;;;;;5013154;28;20574;-60
2020/12/19 02:39:02;;;;;;;23.83;7.03;;;0.70;99.90;;;;;;5046577;28;20460;-60
2020/12/19 02:41:28;;;;;;;44.60;7.30;;;0.70;99.90;;;;;;5020660;28;20423;-61
2020/12/19 02:43:56;;;;;;;9.60;6.10;;;0.70;99.90;;;;;;5049102;28;20443;-61
2020/12/19 02:46:21;;;;;;;17.13;5.73;;;0.70;99.90;;;;;;5029656;28;20999;-63
2020/12/19 02:48:48;;;;;;;17.00;6.30;;;0.70;99.90;;;;;;5046109;28;20431;-60
2020/12/19 02:51:14;;;;;;;8.37;5.53;;;0.60;99.90;;;;;;5028931;28;20457;-60
2020/12/19 02:53:40;;;;;;;20.47;6.10;;;0.60;99.90;;;;;;5028772;28;20448;-60
2020/12/19 02:56:06;;;;;;;31.07;5.83;;;0.60;99.90;;;;;;5030783;28;20448;-61
2020/12/19 02:58:32;;;;;;;18.80;5.90;;;0.60;99.90;;;;;;5035401;28;20470;-61
2020/12/19 03:00:57;;;;;;;14.63;5.10;;;0.60;99.90;;;;;;5049325;28;20175;-61
2020/12/19 03:03:23;;;;;;;27.17;5.40;;;0.50;99.90;;;;;;5048424;28;20214;-60
2020/12/19 03:05:49;;;;;;;52.37;6.10;;;0.50;99.90;;;;;;5049583;28;20257;-60
2020/12/19 03:08:14;;;;;;;34.03;6.10;;;0.50;99.90;;;;;;5045710;28;20623;-60
2020/12/19 03:10:40;;;;;;;31.97;6.17;;;0.40;99.90;;;;;;5030452;28;20185;-61
2020/12/19 03:13:05;;;;;;;30.60;6.20;;;0.40;99.90;;;;;;5048746;28;20175;-61
2020/12/19 03:15:31;;;;;;;13.53;5.80;;;0.40;99.90;;;;;;5030285;28;20346;-64
2020/12/19 03:17:57;;;;;;;16.73;5.97;;;0.40;99.90;;;;;;5045125;28;20199;-60
2020/12/19 03:20:22;;;;;;;21.23;5.93;;;0.40;99.90;;;;;;5049545;28;20191;-60
2020/12/19 03:22:48;;;;;;;15.30;6.40;;;0.30;99.90;;;;;;5049435;28;20211;-61
2020/12/19 03:25:13;;;;;;;35.40;6.53;;;0.30;99.90;;;;;;5041462;28;20177;-60
2020/12/19 03:27:39;;;;;;;6.63;5.73;;;0.30;99.90;;;;;;5029401;28;20765;-60
2020/12/19 03:30:05;;;;;;;16.43;4.70;;;0.30;99.90;;;;;;5047049;28;20173;-61
2020/12/19 03:32:31;;;;;;;8.07;5.33;;;0.30;99.90;;;;;;5029052;28;20204;-60
2020/12/19 03:34:56;;;;;;;10.50;5.50;;;0.30;99.90;;;;;;5049697;28;20189;-62
2020/12/19 03:37:22;;;;;;;9.93;4.77;;;0.30;99.90;;;;;;5044089;28;20544;-61
2020/12/19 03:39:48;;;;;;;13.53;5.17;;;0.30;99.90;;;;;;5036977;28;20258;-60
2020/12/19 03:42:15;;;;;;;6.10;4.77;;;0.30;99.90;;;;;;5046863;28;20420;-61
2020/12/19 03:44:40;;;;;;;5.93;4.40;;;0.30;99.90;;;;;;5049682;28;20419;-60
2020/12/19 03:47:06;;;;;;;5.23;3.97;;;0.30;99.90;;;;;;5025038;28;20713;-61
2020/12/19 03:49:32;;;;;;;7.20;4.40;;;0.30;99.90;;;;;;5053348;28;20188;-61
2020/12/19 03:51:58;;;;;;;6.03;4.47;;;0.30;99.90;;;;;;5053341;28;20412;-62
2020/12/19 03:54:24;;;;;;;6.20;4.73;;;0.30;99.90;;;;;;5032835;28;20239;-61
2020/12/19 03:56:49;;;;;;;9.43;5.67;;;0.30;99.90;;;;;;5048303;28;20191;-61
2020/12/19 03:59:15;;;;;;;10.03;5.70;;;0.30;99.90;;;;;;5059831;28;20189;-60
2020/12/19 04:01:41;;;;;;;9.13;5.77;;;0.30;99.90;;;;;;5054773;28;20411;-62
2020/12/19 04:04:07;;;;;;;8.33;4.90;;;0.30;99.90;;;;;;5051573;28;20265;-60
2020/12/19 04:06:33;;;;;;;52.93;6.67;;;0.20;99.90;;;;;;5032879;28;20714;-62
2020/12/19 04:08:59;;;;;;;14.70;6.43;;;0.20;99.90;;;;;;5053644;28;20465;-60
2020/12/19 04:11:24;;;;;;;18.73;6.03;;;0.20;99.90;;;;;;5052981;28;20255;-60
2020/12/19 04:13:50;;;;;;;17.00;5.83;;;0.10;99.90;;;;;;5041882;28;20187;-60
2020/12/19 04:16:16;;;;;;;11.83;4.93;;;0.00;99.90;;;;;;5051507;28;20229;-63
2020/12/19 04:18:41;;;;;;;8.23;6.00;;;0.00;99.90;;;;;;5033958;28;20411;-60
2020/12/19 04:21:08;;;;;;;7.27;5.60;;;0.00;99.90;;;;;;5030429;28;20357;-63
2020/12/19 04:23:34;;;;;;;14.33;4.90;;;0.00;99.90;;;;;;5049323;28;20184;-61
2020/12/19 04:26:00;;;;;;;6.37;4.77;;;0.00;99.90;;;;;;5052769;28;20454;-60
2020/12/19 04:28:27;;;;;;;26.83;6.40;;;0.00;99.90;;;;;;5056849;28;20423;-61
2020/12/19 04:30:53;;;;;;;30.43;5.73;;;0.00;99.90;;;;;;5050344;28;20420;-61
2020/12/19 04:33:19;;;;;;;8.20;4.87;;;-0.10;99.90;;;;;;5032109;28;20431;-60
2020/12/19 04:35:44;;;;;;;44.23;6.07;;;-0.20;99.90;;;;;;5032423;28;20295;-61
2020/12/19 04:38:10;;;;;;;19.80;5.57;;;-0.10;99.90;;;;;;5032838;28;20666;-60
2020/12/19 04:40:37;;;;;;;14.87;5.30;;;-0.20;99.90;;;;;;5032449;28;20429;-60
2020/12/19 04:43:15;;;;;;;39.70;5.50;;;-0.10;99.90;;;;;;5032088;28;20188;-60
2020/12/19 04:45:42;;;;;;;35.63;5.23;;;-0.20;99.90;;;;;;5051163;28;20480;-60
2020/12/19 04:48:08;;;;;;;8.80;5.37;;;-0.20;99.90;;;;;;5043351;28;20755;-59
2020/12/19 04:50:38;;;;;;;8.73;4.53;;;-0.30;99.90;;;;;;5050967;28;20420;-63
2020/12/19 04:53:21;;;;;;;4.93;4.40;;;-0.30;99.90;;;;;;5033859;28;20422;-60
2020/12/19 04:55:48;;;;;;;4.80;4.30;;;-0.30;99.90;;;;;;5052653;28;20559;-60
2020/12/19 04:58:16;;;;;;;4.53;4.00;;;-0.30;99.90;;;;;;5051495;28;20934;-60
2020/12/19 05:00:42;;;;;;;3.80;3.40;;;-0.40;99.90;;;;;;5054292;28;20448;-60
2020/12/19 05:03:08;;;;;;;7.27;5.07;;;-0.40;99.90;;;;;;5031650;28;20429;-60
2020/12/19 05:05:36;;;;;;;6.20;4.60;;;-0.40;99.90;;;;;;5043659;28;20448;-60
2020/12/19 05:08:02;;;;;;;5.63;4.93;;;-0.40;99.90;;;;;;5051652;28;20469;-60
2020/12/19 05:10:28;;;;;;;6.77;4.37;;;-0.40;99.90;;;;;;5046036;28;21509;-60
2020/12/19 05:12:55;;;;;;;9.40;4.80;;;-0.30;99.90;;;;;;5050764;28;20212;-60
2020/12/19 05:15:21;;;;;;;5.40;3.90;;;-0.30;99.90;;;;;;5019445;28;20478;-61
2020/12/19 05:17:54;;;;;;;6.67;4.47;;;-0.30;99.90;;;;;;5047920;28;20426;-60
2020/12/19 05:20:24;;;;;;;6.90;4.90;;;-0.30;99.90;;;;;;5029864;28;21006;-61
2020/12/19 05:22:51;;;;;;;4.87;3.87;;;-0.30;99.90;;;;;;5046187;28;20442;-60
2020/12/19 05:25:18;;;;;;;5.87;4.33;;;-0.40;99.90;;;;;;5044009;28;20408;-62
2020/12/19 05:27:45;;;;;;;8.60;5.30;;;-0.40;99.90;;;;;;5051367;28;20496;-60
2020/12/19 05:30:15;;;;;;;6.10;4.60;;;-0.40;99.90;;;;;;5045853;28;20447;-61
2020/12/19 05:32:47;;;;;;;7.37;5.37;;;-0.40;99.90;;;;;;5048653;28;20415;-60
2020/12/19 05:35:17;;;;;;;7.90;5.77;;;-0.30;99.90;;;;;;5051643;28;20431;-62
2020/12/19 05:37:43;;;;;;;10.57;4.97;;;-0.30;99.90;;;;;;5050710;28;20474;-60
2020/12/19 05:40:13;;;;;;;7.73;5.10;;;-0.30;99.90;;;;;;5042405;28;20441;-61
2020/12/19 05:42:41;;;;;;;12.17;5.60;;;-0.30;99.90;;;;;;5050946;28;20488;-59
2020/12/19 05:45:21;;;;;;;11.10;5.60;;;-0.30;99.90;;;;;;5031559;28;20940;-61
2020/12/19 05:47:47;;;;;;;14.23;5.90;;;-0.40;99.90;;;;;;5043424;28;20429;-59
2020/12/19 05:50:13;;;;;;;12.03;5.80;;;-0.40;99.90;;;;;;5032237;28;20498;-60
2020/12/19 05:52:40;;;;;;;10.90;5.40;;;-0.40;99.90;;;;;;5031557;28;20439;-62
2020/12/19 05:55:11;;;;;;;8.97;4.87;;;-0.50;99.90;;;;;;5046139;28;20427;-60
2020/12/19 05:57:38;;;;;;;6.60;5.20;;;-0.50;99.90;;;;;;5056622;28;20457;-60
2020/12/19 06:00:17;;;;;;;7.50;4.70;;;-0.50;99.90;;;;;;5058742;28;20411;-60
2020/12/19 06:02:44;;;;;;;6.90;4.97;;;-0.50;99.90;;;;;;5044476;28;20443;-60
2020/12/19 06:05:11;;;;;;;5.00;4.37;;;-0.50;99.90;;;;;;5033072;28;20806;-61
2020/12/19 06:07:39;;;;;;;8.17;5.03;;;-0.60;99.90;;;;;;5046879;28;20908;-60
2020/12/19 06:10:07;;;;;;;9.27;5.70;;;-0.60;99.90;;;;;;5049271;28;20407;-60
2020/12/19 06:12:45;;;;;;;15.60;8.20;;;-0.50;99.90;;;;;;5050341;28;20414;-60
2020/12/19 06:15:19;;;;;;;11.47;7.10;;;-0.50;99.90;;;;;;5051108;28;20470;-60
2020/12/19 06:17:52;;;;;;;12.13;7.83;;;-0.50;99.90;;;;;;5031545;28;20831;-60
2020/12/19 06:20:19;;;;;;;9.83;6.40;;;-0.50;99.90;;;;;;5071150;22;20526;-57
2020/12/19 06:22:45;;;;;;;8.43;5.33;;;-0.50;99.90;;;;;;5064225;28;20429;-55
2020/12/19 06:25:10;;;;;;;7.73;5.50;;;-0.50;99.90;;;;;;5060128;28;20406;-57
2020/12/19 06:27:37;;;;;;;6.93;4.97;;;-0.50;99.90;;;;;;5065226;28;20187;-56
2020/12/19 06:30:03;;;;;;;9.63;5.63;;;-0.60;99.90;;;;;;5036322;28;20208;-58
2020/12/19 06:32:30;;;;;;;10.17;5.57;;;-0.60;99.90;;;;;;5056158;28;20413;-54
2020/12/19 06:35:06;;;;;;;10.77;5.53;;;-0.60;99.90;;;;;;5069951;28;20489;-55
2020/12/19 06:37:37;;;;;;;9.50;5.73;;;-0.70;99.90;;;;;;5069309;28;20416;-54
2020/12/19 06:40:10;;;;;;;9.07;5.57;;;-0.70;99.90;;;;;;5069087;28;20966;-54
2020/12/19 06:42:35;;;;;;;7.97;6.03;;;-0.80;99.90;;;;;;5068614;28;20410;-55
2020/12/19 06:45:21;;;;;;;9.80;6.43;;;-0.80;99.90;;;;;;5060589;28;20749;-56
2020/12/19 06:47:51;;;;;;;9.37;6.03;;;-0.80;99.90;;;;;;5064272;28;20203;-56
2020/12/19 06:50:18;;;;;;;5.93;5.10;;;-0.80;99.90;;;;;;5064114;28;20551;-55
2020/12/19 06:52:59;;;;;;;10.37;6.23;;;-0.80;99.90;;;;;;5062488;28;20514;-55
2020/12/19 06:55:29;;;;;;;6.40;5.07;;;-0.70;99.90;;;;;;5057008;28;20909;-55
2020/12/19 06:57:58;;;;;;;9.03;5.93;;;-0.70;99.90;;;;;;5052823;28;20475;-55
2020/12/19 07:00:31;;;;;;;10.93;6.70;;;-0.60;99.90;;;;;;5063307;28;20455;-55
2020/12/19 07:03:02;;;;;;;8.93;6.07;;;-0.60;99.90;;;;;;5041728;28;20819;-55
2020/12/19 07:05:35;;;;;;;9.43;6.43;;;-0.60;99.90;;;;;;5063593;28;21237;-55
2020/12/19 07:08:20;;;;;;;10.40;6.40;;;-0.60;99.90;;;;;;5059428;28;20479;-56
2020/12/19 07:10:46;;;;;;;11.83;7.50;;;-0.60;99.90;;;;;;5062077;28;20480;-56
2020/12/19 07:13:13;;;;;;;9.73;7.07;;;-0.60;99.90;;;;;;5056491;28;20509;-56
2020/12/19 07:15:47;;;;;;;10.77;7.47;;;-0.50;99.90;;;;;;5062215;28;20849;-55
2020/12/19 07:18:36;;;;;;;9.40;7.40;;;-0.50;99.90;;;;;;5060549;28;20429;-55
2020/12/19 07:21:10;;;;;;;12.60;7.33;;;-0.50;99.90;;;;;;5055046;28;20433;-55
2020/12/19 07:23:40;;;;;;;10.27;6.90;;;-0.50;99.90;;;;;;5061571;28;20445;-56
2020/12/19 07:26:07;;;;;;;11.07;7.30;;;-0.50;99.90;;;;;;5065570;28;20473;-57
2020/12/19 07:28:33;;;;;;;10.43;6.37;;;-0.50;99.90;;;;;;5058765;28;20468;-54
2020/12/19 07:31:00;;;;;;;6.90;5.27;;;-0.50;99.90;;;;;;5061642;28;20451;-56
2020/12/19 07:33:26;;;;;;;7.90;5.20;;;-0.50;99.90;;;;;;5062583;28;20937;-56
2020/12/19 07:35:51;;;;;;;8.30;5.10;;;-0.50;99.90;;;;;;5067214;28;20463;-56
2020/12/19 07:38:20;;;;;;;8.00;5.60;;;-0.50;99.90;;;;;;5062932;28;20275;-55
2020/12/19 07:40:53;;;;;;;5.80;4.80;;;-0.50;99.90;;;;;;5045320;28;20229;-56
2020/12/19 07:43:20;;;;;;;6.33;4.87;;;-0.50;99.90;;;;;;5068002;28;20531;-58
2020/12/19 07:45:49;;;;;;;5.17;4.37;;;-0.50;99.90;;;;;;5070163;28;21069;-57
2020/12/19 07:48:15;;;;;;;5.20;4.53;;;-0.50;99.90;;;;;;5067165;28;20418;-57
2020/12/19 07:50:41;;;;;;;7.87;4.93;;;-0.50;99.90;;;;;;5064920;28;21010;-57
2020/12/19 07:53:08;;;;;;;7.57;5.77;;;-0.50;99.90;;;;;;5066535;28;20199;-58
2020/12/19 07:55:35;;;;;;;8.20;6.30;;;-0.50;99.90;;;;;;5068922;28;20432;-57
2020/12/19 07:58:02;;;;;;;16.20;7.20;;;-0.40;99.90;;;;;;5067493;28;20515;-57
2020/12/19 08:00:29;;;;;;;11.10;7.43;;;-0.40;99.90;;;;;;5046254;28;20461;-57
2020/12/19 08:02:54;;;;;;;12.93;7.40;;;-0.30;99.90;;;;;;5067872;28;20800;-56
2020/12/19 08:05:21;;;;;;;12.20;7.10;;;-0.30;99.90;;;;;;5067514;28;20430;-56
2020/12/19 08:07:54;;;;;;;13.30;8.90;;;-0.30;99.90;;;;;;5065172;28;20218;-58
2020/12/19 08:10:21;;;;;;;12.83;7.23;;;-0.30;99.90;;;;;;5067852;28;21138;-56
2020/12/19 08:12:48;;;;;;;12.93;8.03;;;-0.30;99.90;;;;;;5067861;28;20413;-56
2020/12/19 08:15:19;;;;;;;13.80;8.00;;;-0.30;99.90;;;;;;5064511;28;20476;-57
2020/12/19 08:17:45;;;;;;;12.77;8.53;;;-0.20;99.90;;;;;;5069387;28;20434;-56
2020/12/19 08:20:12;;;;;;;13.93;7.93;;;-0.20;99.90;;;;;;5066646;28;20825;-58
2020/12/19 08:22:40;;;;;;;14.30;8.53;;;-0.10;99.90;;;;;;5065019;28;20441;-58
2020/12/19 08:25:09;;;;;;;12.20;7.33;;;-0.10;99.90;;;;;;5067927;28;20559;-56
2020/12/19 08:27:45;;;;;;;13.60;7.10;;;-0.10;99.90;;;;;;5064016;28;20468;-57
2020/12/19 08:30:29;;;;;;;10.47;7.73;;;0.00;99.90;;;;;;5062369;28;20446;-57
2020/12/19 08:33:00;;;;;;;12.80;8.00;;;0.00;99.90;;;;;;5062772;28;21424;-55
2020/12/19 08:35:29;;;;;;;19.40;10.43;;;-0.10;99.90;;;;;;5064148;28;20562;-55
2020/12/19 08:38:06;;;;;;;22.47;11.53;;;0.00;99.90;;;;;;5065636;28;20471;-54
2020/12/19 08:40:46;;;;;;;20.47;11.20;;;0.00;99.90;;;;;;5064945;28;20460;-56
2020/12/19 08:43:13;;;;;;;14.43;9.33;;;0.00;99.90;;;;;;5059267;28;20509;-56
2020/12/19 08:45:49;;;;;;;14.80;9.80;;;0.10;99.90;;;;;;5067299;28;20441;-56
2020/12/19 08:48:25;;;;;;;15.03;8.93;;;0.10;99.90;;;;;;5064256;28;20421;-57
2020/12/19 08:50:52;;;;;;;12.97;8.10;;;0.20;99.90;;;;;;5056930;28;20468;-57
2020/12/19 08:53:25;;;;;;;12.50;7.70;;;0.20;99.90;;;;;;5044918;28;20438;-55
2020/12/19 08:55:52;;;;;;;11.83;7.40;;;0.30;99.90;;;;;;5065938;28;20966;-57
2020/12/19 08:58:21;;;;;;;11.77;7.97;;;0.40;99.90;;;;;;5064142;28;22776;-55
2020/12/19 09:00:47;;;;;;;13.60;8.60;;;0.40;99.90;;;;;;5065911;28;20494;-57
2020/12/19 09:03:13;;;;;;;11.60;7.60;;;0.50;99.90;;;;;;5064236;28;20959;-56
2020/12/19 09:05:43;;;;;;;12.03;7.93;;;0.60;99.90;;;;;;5060933;28;20247;-56
2020/12/19 09:08:13;;;;;;;14.53;8.40;;;0.60;99.90;;;;;;5056971;28;20330;-55
2020/12/19 09:10:40;;;;;;;17.87;10.30;;;0.70;99.90;;;;;;5060083;28;20450;-53
2020/12/19 09:13:11;;;;;;;15.53;9.60;;;0.80;99.90;;;;;;5060845;28;20451;-55
2020/12/19 09:15:41;;;;;;;15.77;10.10;;;0.90;99.90;;;;;;5066006;28;20449;-57
2020/12/19 09:18:25;;;;;;;20.60;9.97;;;0.90;99.90;;;;;;5061783;28;20576;-54
2020/12/19 09:20:57;;;;;;;22.30;10.60;;;1.00;99.90;;;;;;5055499;28;20466;-53
2020/12/19 09:23:24;;;;;;;17.43;11.07;;;1.00;99.90;;;;;;5051502;28;20435;-52
2020/12/19 09:25:50;;;;;;;18.40;11.17;;;1.10;99.90;;;;;;5057286;28;20455;-57
2020/12/19 09:28:16;;;;;;;18.17;10.50;;;1.20;99.90;;;;;;5060347;28;20435;-57
2020/12/19 09:30:43;;;;;;;21.67;12.10;;;1.20;99.90;;;;;;5062949;28;20455;-56
2020/12/19 09:33:09;;;;;;;23.23;12.33;;;1.30;99.90;;;;;;5060399;28;20533;-55
2020/12/19 09:35:35;;;;;;;28.10;12.97;;;1.40;99.90;;;;;;5060032;28;20458;-53
2020/12/19 09:38:01;;;;;;;20.03;11.60;;;1.50;99.90;;;;;;5046670;28;20975;-57
2020/12/19 09:40:26;;;;;;;23.87;11.70;;;1.60;99.90;;;;;;5062065;28;20446;-58
2020/12/19 09:42:52;;;;;;;21.37;11.87;;;1.70;99.90;;;;;;5066734;28;20183;-57
2020/12/19 09:45:18;;;;;;;22.17;10.00;;;1.80;99.90;;;;;;5066725;28;20181;-58
2020/12/19 09:47:44;;;;;;;15.90;9.90;;;1.90;99.90;;;;;;5045384;28;20458;-58
2020/12/19 09:50:12;;;;;;;23.80;11.93;;;2.00;99.90;;;;;;5061186;28;20484;-57
2020/12/19 09:52:38;;;;;;;13.23;9.03;;;2.10;99.90;;;;;;5061351;28;20511;-57
2020/12/19 09:55:07;;;;;;;16.60;7.70;;;2.20;99.90;;;;;;5061255;28;20447;-56
2020/12/19 09:57:33;;;;;;;11.23;6.97;;;2.20;99.90;;;;;;5059166;28;20443;-54
2020/12/19 09:59:59;;;;;;;14.23;7.97;;;2.30;99.90;;;;;;5056521;28;20490;-59
2020/12/19 10:02:26;;;;;;;13.13;6.03;;;2.40;99.90;;;;;;5058831;28;20817;-60
2020/12/19 10:04:52;;;;;;;14.00;6.60;;;2.50;99.90;;;;;;5065460;28;20475;-53
2020/12/19 10:07:18;;;;;;;11.57;7.10;;;2.60;99.90;;;;;;5064278;28;20493;-55
2020/12/19 10:09:44;;;;;;;11.63;6.23;;;2.70;99.90;;;;;;5065900;28;20462;-56
2020/12/19 10:12:09;;;;;;;8.00;5.90;;;2.80;99.90;;;;;;5046478;28;20586;-54
2020/12/19 10:14:35;;;;;;;10.60;6.50;;;2.80;99.90;;;;;;5046840;28;20296;-55
2020/12/19 10:17:01;;;;;;;11.40;6.63;;;2.90;99.90;;;;;;5067419;28;20620;-56
2020/12/19 10:19:27;;;;;;;10.87;6.73;;;3.00;99.90;;;;;;5064837;28;20231;-55
2020/12/19 10:21:53;;;;;;;11.00;5.60;;;3.10;99.90;;;;;;5046599;28;20519;-57
2020/12/19 10:24:19;;;;;;;11.57;6.63;;;3.20;99.90;;;;;;5066561;28;20197;-55
2020/12/19 10:26:47;;;;;;;10.57;6.07;;;3.30;99.90;;;;;;5062135;28;20835;-55
2020/12/19 10:29:14;;;;;;;10.97;6.30;;;3.50;99.90;;;;;;5064432;28;20292;-59
2020/12/19 10:31:40;;;;;;;10.67;7.03;;;3.60;99.90;;;;;;5065157;28;20694;-56
2020/12/19 10:34:06;;;;;;;13.70;7.20;;;3.70;99.90;;;;;;5065977;28;20955;-55
2020/12/19 10:36:31;;;;;;;9.27;6.70;;;3.80;99.90;;;;;;5068456;28;20181;-56
2020/12/19 10:38:58;;;;;;;10.77;7.17;;;3.90;99.90;;;;;;5067496;28;20906;-56
2020/12/19 10:41:24;;;;;;;7.77;5.77;;;4.00;99.90;;;;;;5068293;28;20439;-56
2020/12/19 10:43:50;;;;;;;18.20;8.23;;;4.10;99.90;;;;;;5059743;28;20439;-56
2020/12/19 10:46:23;;;;;;;13.20;8.30;;;4.20;99.90;;;;;;5061277;28;20459;-56
2020/12/19 10:48:49;;;;;;;11.60;6.77;;;4.30;99.90;;;;;;5060135;28;20846;-56
2020/12/19 10:51:15;;;;;;;19.17;6.90;;;4.40;99.90;;;;;;5067059;28;20515;-55
2020/12/19 10:53:44;;;;;;;12.40;7.10;;;4.50;99.90;;;;;;5066608;28;20177;-55
2020/12/19 10:56:19;;;;;;;9.07;7.10;;;4.60;99.90;;;;;;5067189;28;20536;-57
2020/12/19 10:58:45;;;;;;;11.50;7.07;;;4.80;99.90;;;;;;5055706;28;20441;-55
2020/12/19 11:01:11;;;;;;;10.27;6.17;;;4.90;99.90;;;;;;5062409;28;20796;-55
2020/12/19 11:03:37;;;;;;;14.00;8.37;;;5.00;99.90;;;;;;5064311;28;20189;-56
2020/12/19 11:06:02;;;;;;;17.00;8.90;;;5.20;99.90;;;;;;5056252;28;20218;-55
2020/12/19 11:08:28;;;;;;;16.20;8.37;;;5.30;99.90;;;;;;5065825;28;20289;-55
2020/12/19 11:10:54;;;;;;;12.90;8.33;;;5.50;99.90;;;;;;5066906;28;20273;-55
2020/12/19 11:13:19;;;;;;;12.67;8.50;;;5.60;99.90;;;;;;5062315;28;20213;-55
2020/12/19 11:15:45;;;;;;;19.97;9.20;;;5.80;99.80;;;;;;5065684;28;20178;-54
2020/12/19 11:18:11;;;;;;;18.20;9.93;;;6.00;99.40;;;;;;5063134;28;20221;-54
2020/12/19 11:20:37;;;;;;;16.73;9.20;;;6.10;98.80;;;;;;5050088;28;20222;-55
2020/12/19 11:23:03;;;;;;;18.53;10.00;;;6.10;98.40;;;;;;5059172;28;20260;-55
2020/12/19 11:25:29;;;;;;;18.83;10.33;;;6.20;98.20;;;;;;5060510;28;20853;-55
2020/12/19 11:27:54;;;;;;;23.00;10.20;;;6.30;98.00;;;;;;5066502;28;20304;-55
2020/12/19 11:30:20;;;;;;;16.17;9.73;;;6.30;97.80;;;;;;5065028;28;20680;-56
2020/12/19 11:32:46;;;;;;;17.80;10.03;;;6.40;98.00;;;;;;5063027;28;20185;-54
2020/12/19 11:35:11;;;;;;;20.20;10.03;;;6.50;98.00;;;;;;5039693;28;20270;-55
2020/12/19 11:37:37;;;;;;;16.30;10.27;;;6.50;98.10;;;;;;5042489;28;20206;-54
2020/12/19 11:40:05;;;;;;;16.73;10.90;;;6.60;97.90;;;;;;5060060;28;20198;-63
2020/12/19 11:42:31;;;;;;;16.80;10.57;;;6.80;98.00;;;;;;5051231;28;20187;-57
2020/12/19 11:44:57;;;;;;;17.97;9.60;;;6.90;97.60;;;;;;5056000;28;20485;-54
2020/12/19 11:47:23;;;;;;;20.60;10.83;;;7.00;97.50;;;;;;5058495;28;20464;-55
2020/12/19 11:49:49;;;;;;;15.87;9.97;;;7.10;97.50;;;;;;5055862;28;20190;-56
2020/12/19 11:52:14;;;;;;;15.83;10.40;;;7.10;97.60;;;;;;5052753;28;20194;-57
2020/12/19 11:54:40;;;;;;;15.90;9.97;;;7.00;97.80;;;;;;5055392;28;20182;-54
2020/12/19 11:57:06;;;;;;;19.53;9.90;;;6.90;98.00;;;;;;5058262;28;20266;-55
2020/12/19 11:59:32;;;;;;;17.70;10.97;;;6.90;98.20;;;;;;5056168;28;20345;-55
2020/12/19 12:02:04;;;;;;;18.70;10.87;;;6.80;98.40;;;;;;5058933;28;20954;-54
2020/12/19 12:04:30;;;;;;;19.63;13.10;;;6.80;98.50;;;;;;5057590;28;20965;-55
2020/12/19 12:06:56;;;;;;;22.17;11.40;;;6.80;98.70;;;;;;5057638;28;20465;-54
2020/12/19 12:09:22;;;;;;;16.60;10.80;;;6.70;98.80;;;;;;5038182;28;20459;-55
2020/12/19 12:11:48;;;;;;;18.50;10.27;;;6.60;98.90;;;;;;5053261;28;20212;-55
2020/12/19 12:14:13;;;;;;;16.40;9.90;;;6.60;98.80;;;;;;5061057;28;20895;-55
2020/12/19 12:16:39;;;;;;;22.70;12.10;;;6.50;98.80;;;;;;5062545;28;20183;-55
2020/12/19 12:19:05;;;;;;;19.47;11.30;;;6.50;99.00;;;;;;5060869;28;20206;-56
2020/12/19 12:21:38;;;;;;;19.00;11.87;;;6.50;99.20;;;;;;5060936;28;20311;-54
2020/12/19 12:24:04;;;;;;;18.50;11.00;;;6.50;99.00;;;;;;5056684;28;20187;-56
2020/12/19 12:26:31;;;;;;;17.97;10.70;;;6.50;99.30;;;;;;5056758;28;20494;-54
2020/12/19 12:28:57;;;;;;;15.50;9.00;;;6.40;99.60;;;;;;5059688;28;20452;-56
2020/12/19 12:31:24;;;;;;;14.57;8.90;;;6.40;99.90;;;;;;5059753;28;20457;-55
2020/12/19 12:33:51;;;;;;;16.23;9.40;;;6.40;99.90;;;;;;5036612;28;20999;-54
2020/12/19 12:36:17;;;;;;;19.90;10.00;;;6.40;99.80;;;;;;5059169;28;20534;-53
2020/12/19 12:38:43;;;;;;;22.00;11.83;;;6.40;99.70;;;;;;5082146;22;21016;-63
2020/12/19 12:41:09;;;;;;;18.67;10.13;;;6.40;99.40;;;;;;5058177;28;20436;-64
2020/12/19 12:43:35;;;;;;;16.10;9.13;;;6.40;99.60;;;;;;5062641;28;20182;-63
2020/12/19 12:46:00;;;;;;;15.30;8.73;;;6.50;99.70;;;;;;5041173;28;20202;-63
2020/12/19 12:48:26;;;;;;;15.63;8.93;;;6.50;99.70;;;;;;5063185;28;20272;-66